Time;durP1;ratioP1;P1;durP2;ratioP2;P2;SDS_P1;SDS_P2;PMS_P1;PMS_P2;Temp;Humidity;BMP_temperature;BMP_pressure;BME280_temperature;BME280_humidity;BME280_pressure;Samples;Min_cycle;Max_cycle;Signal;HPM_P1;HPM_P2
2021/05/11 00:01:41;;;;;;;6.58;5.00;;;;;;;8.99;66.86;101231.28;1745936;80;21180;-42
2021/05/11 00:04:09;;;;;;;7.67;4.85;;;;;;;8.98;67.03;101232.23;1754434;81;21161;-41
2021/05/11 00:06:36;;;;;;;8.80;4.72;;;;;;;8.96;67.08;101234.08;1750386;80;21149;-43
2021/05/11 00:09:05;;;;;;;8.43;5.62;;;;;;;8.92;67.24;101231.13;1752747;80;21806;-42
2021/05/11 00:11:33;;;;;;;8.88;5.92;;;;;;;8.87;67.32;101229.53;1747018;80;21156;-41
2021/05/11 00:14:05;;;;;;;9.73;5.65;;;;;;;8.83;67.38;101223.92;1775072;79;21145;-41
2021/05/11 00:16:34;;;;;;;10.48;5.47;;;;;;;8.79;67.44;101224.95;1744534;81;21166;-40
2021/05/11 00:19:06;;;;;;;8.78;6.35;;;;;;;8.75;67.64;101222.03;1743074;80;21581;-40
2021/05/11 00:21:33;;;;;;;12.33;7.62;;;;;;;8.76;67.75;101220.23;1746478;80;21522;-42
2021/05/11 00:24:00;;;;;;;8.45;5.37;;;;;;;8.75;67.84;101218.05;1723690;80;21474;-43
2021/05/11 00:26:28;;;;;;;7.87;5.58;;;;;;;8.71;67.98;101219.08;1733811;80;21193;-42
2021/05/11 00:28:56;;;;;;;9.88;5.47;;;;;;;8.70;68.07;101213.37;1777007;79;21161;-40
2021/05/11 00:31:23;;;;;;;7.95;5.67;;;;;;;8.69;67.99;101206.77;1728015;80;22535;-40
2021/05/11 00:33:54;;;;;;;11.50;5.70;;;;;;;8.65;67.86;101210.02;1758302;80;21442;-43
2021/05/11 00:36:21;;;;;;;7.70;5.12;;;;;;;8.62;68.00;101206.16;1752276;80;21189;-42
2021/05/11 00:38:49;;;;;;;9.75;5.75;;;;;;;8.60;68.03;101208.87;1766649;80;21161;-42
2021/05/11 00:41:17;;;;;;;10.95;6.25;;;;;;;8.58;68.01;101206.72;1778729;80;21169;-41
2021/05/11 00:43:45;;;;;;;10.63;6.45;;;;;;;8.57;68.03;101202.81;1766893;79;21124;-40
2021/05/11 00:46:14;;;;;;;9.83;6.30;;;;;;;8.54;67.96;101201.14;1756553;80;21140;-40
2021/05/11 00:48:41;;;;;;;8.33;5.35;;;;;;;8.52;67.97;101199.47;1775019;79;21396;-40
2021/05/11 00:51:10;;;;;;;8.70;5.87;;;;;;;8.45;67.98;101197.03;1764848;80;21164;-41
2021/05/11 00:53:38;;;;;;;12.23;5.87;;;;;;;8.43;68.04;101194.89;1724168;81;21165;-41
2021/05/11 00:56:07;;;;;;;11.10;6.62;;;;;;;8.41;67.89;101194.54;1748043;81;21604;-41
2021/05/11 00:58:34;;;;;;;10.35;6.95;;;;;;;8.38;67.87;101199.95;1726904;81;21590;-41
2021/05/11 01:01:03;;;;;;;11.20;6.67;;;;;;;8.36;67.78;101189.83;1721992;80;21157;-41
2021/05/11 01:03:30;;;;;;;12.23;6.90;;;;;;;8.34;67.78;101195.22;1732850;81;21172;-39
2021/05/11 01:05:58;;;;;;;12.68;6.45;;;;;;;8.34;67.71;101194.33;1743907;81;21218;-40
2021/05/11 01:08:26;;;;;;;13.72;9.53;;;;;;;8.31;67.68;101193.13;1744073;80;21503;-39
2021/05/11 01:10:53;;;;;;;11.45;6.35;;;;;;;8.25;67.75;101192.91;1777063;79;21193;-41
2021/05/11 01:13:21;;;;;;;11.35;7.72;;;;;;;8.20;67.81;101189.08;1743932;80;21188;-41
2021/05/11 01:15:51;;;;;;;10.20;6.83;;;;;;;8.16;67.76;101185.27;1774569;80;21157;-43
2021/05/11 01:18:26;;;;;;;11.05;7.67;;;;;;;8.14;67.79;101189.33;1770901;80;21153;-41
2021/05/11 01:20:57;;;;;;;11.83;6.70;;;;;;;8.14;67.87;101188.44;1772694;80;21531;-40
2021/05/11 01:26:27;;;;;;;13.35;6.87;;;;;;;8.15;68.05;101185.73;1881869;74;21278;-41
2021/05/11 01:48:29;;;;;;;12.30;7.50;;;;;;;7.91;69.70;101186.63;1832714;76;21502;-42
2021/05/11 01:56:50;;;;;;;10.40;6.87;;;;;;;7.90;70.10;101188.42;1828880;76;21124;-41
2021/05/11 02:23:56;;;;;;;11.20;6.80;;;;;;;7.82;71.06;101197.60;1780634;78;21110;-40
2021/05/11 02:26:23;;;;;;;9.98;6.45;;;;;;;7.82;71.06;101197.60;1767783;78;21145;-44
2021/05/11 02:28:51;;;;;;;12.85;7.15;;;;;;;7.82;70.61;101190.96;1724650;81;21157;-41
2021/05/11 02:31:18;;;;;;;11.80;6.90;;;;;;;7.79;70.89;101187.95;1725192;81;21157;-41
2021/05/11 02:33:46;;;;;;;9.23;6.80;;;;;;;7.79;70.89;101187.95;1695407;83;21182;-40
2021/05/11 02:36:14;;;;;;;13.43;7.10;;;;;;;7.76;71.23;101180.08;1728822;81;21129;-41
2021/05/11 02:38:42;;;;;;;11.80;7.28;;;;;;;7.70;71.48;101179.84;1729706;81;21138;-41
2021/05/11 02:41:11;;;;;;;11.15;6.90;;;;;;;7.64;71.74;101178.74;1697998;83;21158;-41
2021/05/11 02:43:39;;;;;;;8.45;6.53;;;;;;;7.57;71.85;101178.08;1722108;81;21169;-41
2021/05/11 02:46:06;;;;;;;11.63;6.72;;;;;;;7.59;72.20;101182.88;1722361;81;21178;-40
2021/05/11 02:48:34;;;;;;;10.50;6.80;;;;;;;7.59;72.20;101182.88;1720750;81;21139;-41
2021/05/11 02:51:02;;;;;;;11.78;6.53;;;;;;;7.63;72.21;101177.45;1718172;81;21574;-39
2021/05/11 02:53:30;;;;;;;11.22;6.78;;;;;;;7.66;72.40;101176.02;1719379;81;21140;-39
2021/05/11 02:55:58;;;;;;;9.53;6.28;;;;;;;7.67;72.49;101179.09;1721153;81;21653;-40
2021/05/11 02:58:27;;;;;;;14.18;10.30;;;;;;;7.71;72.54;101172.73;1693776;83;21586;-40
2021/05/11 03:00:54;;;;;;;13.25;9.20;;;;;;;7.73;72.69;101174.41;1679402;83;21165;-39
2021/05/11 03:03:22;;;;;;;12.73;7.87;;;;;;;7.82;72.77;101180.34;1722373;81;21485;-39
2021/05/11 03:05:50;;;;;;;10.85;7.08;;;;;;;7.88;73.04;101180.97;1695765;83;21164;-41
2021/05/11 03:08:18;;;;;;;8.85;6.20;;;;;;;7.93;73.10;101179.01;1742532;81;21150;-41
2021/05/11 03:10:47;;;;;;;9.00;6.08;;;;;;;7.94;73.04;101170.14;1745359;80;21559;-41
2021/05/11 03:13:15;;;;;;;9.63;6.20;;;;;;;7.97;72.91;101174.00;1752397;80;21114;-43
2021/05/11 03:15:42;;;;;;;9.28;6.50;;;;;;;7.97;73.13;101170.02;1708585;82;21640;-42
2021/05/11 03:18:10;;;;;;;11.25;6.40;;;;;;;8.00;73.16;101163.73;1739993;81;21142;-44
2021/05/11 03:20:39;;;;;;;9.43;5.92;;;;;;;8.03;73.62;101169.78;1733862;80;21134;-42
2021/05/11 03:23:06;;;;;;;8.33;5.28;;;;;;;8.08;73.83;101168.75;1742673;80;21489;-42
2021/05/11 03:25:34;;;;;;;10.38;5.85;;;;;;;8.08;73.83;101168.75;1737639;81;21186;-40
2021/05/11 03:28:02;;;;;;;9.50;6.35;;;;;;;8.12;73.75;101166.40;1740036;80;21138;-42
2021/05/11 03:30:30;;;;;;;10.72;6.17;;;;;;;8.19;73.63;101152.83;1739795;80;21680;-41
2021/05/11 03:32:58;;;;;;;10.00;5.78;;;;;;;8.24;73.68;101161.48;1735477;80;21555;-41
2021/05/11 03:35:25;;;;;;;7.78;5.90;;;;;;;8.33;73.09;101168.69;1742759;81;21610;-43
2021/05/11 03:37:53;;;;;;;9.30;6.47;;;;;;;8.48;73.06;101172.59;1741943;80;21126;-42
2021/05/11 03:40:21;;;;;;;7.22;4.92;;;;;;;8.48;73.06;101172.59;1737967;80;21189;-43
2021/05/11 03:42:53;;;;;;;9.00;5.60;;;;;;;8.55;73.15;101164.78;1743465;80;21154;-43
2021/05/11 03:45:23;;;;;;;10.65;6.15;;;;;;;8.63;72.76;101165.34;1740484;80;21130;-43
2021/05/11 03:47:56;;;;;;;8.33;5.30;;;;;;;8.77;72.63;101164.77;1799847;78;22950;-43
2021/05/11 03:50:49;;;;;;;7.87;5.62;;;;;;;8.87;72.44;101171.02;1798807;78;23768;-42
2021/05/11 03:53:23;;;;;;;7.30;5.12;;;;;;;8.97;72.19;101170.62;1758102;78;23061;-40
2021/05/11 03:56:17;;;;;;;11.20;5.92;;;;;;;9.05;72.07;101179.17;1796125;78;23090;-39
2021/05/11 03:58:51;;;;;;;9.08;5.47;;;;;;;9.13;71.97;101182.84;1755292;79;23414;-44
2021/05/11 04:01:25;;;;;;;9.93;6.45;;;;;;;9.22;71.71;101175.80;1809397;77;23018;-46
2021/05/11 04:03:59;;;;;;;8.68;5.78;;;;;;;9.29;71.45;101177.27;1801218;78;23093;-42
2021/05/11 04:06:54;;;;;;;8.10;5.37;;;;;;;9.39;71.12;101177.75;1811582;77;22893;-40
2021/05/11 04:18:02;;;;;;;8.50;4.87;;;;;;;9.79;68.93;101173.36;1807108;78;23269;-46
2021/05/11 04:20:36;;;;;;;5.85;3.83;;;;;;;9.90;67.30;101175.96;1800349;77;22980;-38
2021/05/11 04:23:16;;;;;;;5.70;3.85;;;;;;;10.00;65.15;101171.53;1820380;76;23059;-41
2021/05/11 04:25:50;;;;;;;5.28;3.40;;;;;;;10.10;63.51;101163.52;1761082;79;23083;-41
2021/05/11 04:28:24;;;;;;;5.45;3.47;;;;;;;10.20;62.40;101164.81;1806299;78;23115;-43
2021/05/11 04:30:59;;;;;;;5.72;3.52;;;;;;;10.28;61.39;101163.16;1743897;79;23123;-42
2021/05/11 04:33:33;;;;;;;6.97;2.98;;;;;;;10.36;60.15;101157.03;1804430;78;23085;-43
2021/05/11 04:36:07;;;;;;;7.25;3.42;;;;;;;10.44;58.23;101156.19;1800184;78;22932;-41
2021/05/11 04:38:42;;;;;;;4.40;3.05;;;;;;;10.54;57.64;101159.30;1804595;78;23100;-43
2021/05/11 04:41:16;;;;;;;5.00;3.33;;;;;;;10.63;56.72;101153.97;1795683;77;22984;-44
2021/05/11 04:43:50;;;;;;;4.28;3.00;;;;;;;10.72;55.03;101142.88;1798702;78;23635;-42
2021/05/11 04:46:48;;;;;;;4.75;2.95;;;;;;;10.81;55.33;101141.09;1784237;78;23077;-43
2021/05/11 04:49:39;;;;;;;4.92;3.62;;;;;;;10.88;55.35;101151.84;1791085;78;23545;-45
2021/05/11 04:52:12;;;;;;;6.22;3.20;;;;;;;10.95;54.62;101146.59;1759351;79;23095;-43
2021/05/11 04:54:47;;;;;;;5.78;3.27;;;;;;;11.01;53.66;101140.97;1798158;77;22873;-43
2021/05/11 04:57:21;;;;;;;4.12;2.83;;;;;;;11.10;53.54;101139.63;1797541;77;22967;-40
2021/05/11 04:59:55;;;;;;;4.95;3.27;;;;;;;11.18;52.32;101136.09;1806836;78;23052;-44
2021/05/11 05:02:51;;;;;;;5.80;3.10;;;;;;;11.28;51.57;101131.16;1785952;78;23018;-43
2021/05/11 05:05:25;;;;;;;4.47;3.33;;;;;;;11.35;52.11;101130.39;1786200;77;38852;-43
2021/05/11 05:08:19;;;;;;;4.25;3.25;;;;;;;11.42;51.74;101124.64;1796892;78;22963;-41
2021/05/11 05:10:53;;;;;;;4.53;3.65;;;;;;;11.54;51.34;101127.61;1804397;78;22923;-42
2021/05/11 05:13:27;;;;;;;6.08;2.98;;;;;;;11.62;51.60;101120.08;1797354;78;23127;-42
2021/05/11 05:16:02;;;;;;;5.05;2.70;;;;;;;11.72;51.03;101120.42;1802819;78;23130;-42
2021/05/11 05:18:36;;;;;;;7.12;2.95;;;;;;;11.82;49.02;101120.36;1797440;77;23619;-41
2021/05/11 05:21:29;;;;;;;7.37;3.35;;;;;;;11.92;49.31;101121.63;1786173;78;23065;-41
2021/05/11 05:27:13;;;;;;;7.00;3.37;;;;;;;12.13;49.68;101126.27;1797543;78;22912;-41
2021/05/11 05:29:38;;;;;;;4.50;2.92;;;;;;;12.24;49.99;101121.65;1748377;79;28229;-41
2021/05/11 05:32:24;;;;;;;6.58;2.83;;;;;;;12.28;48.23;101118.73;1727417;81;21149;-42
2021/05/11 05:34:57;;;;;;;4.12;2.80;;;;;;;12.47;48.80;101115.02;1800164;78;23424;-41
2021/05/11 05:37:51;;;;;;;5.25;2.72;;;;;;;12.60;47.92;101107.16;1798930;78;23037;-41
2021/05/11 05:40:25;;;;;;;3.90;2.72;;;;;;;12.68;48.06;101104.44;1792946;77;22968;-43
2021/05/11 05:42:59;;;;;;;3.65;2.20;;;;;;;12.78;47.59;101105.64;1800386;78;23111;-44
2021/05/11 05:45:35;;;;;;;4.17;2.60;;;;;;;12.89;47.43;101102.81;1794401;77;23452;-41
2021/05/11 05:48:31;;;;;;;7.05;2.90;;;;;;;12.99;44.33;101102.17;1790577;78;23087;-40
2021/05/11 05:51:24;;;;;;;5.25;2.15;;;;;;;13.12;44.46;101104.98;1790300;77;22928;-42
2021/05/11 05:53:58;;;;;;;5.87;2.83;;;;;;;13.21;44.26;101103.11;1756609;79;23673;-41
2021/05/11 05:56:32;;;;;;;4.78;2.37;;;;;;;13.31;43.41;101098.10;1806441;78;23369;-40
2021/05/11 05:59:26;;;;;;;3.17;2.60;;;;;;;13.42;42.91;101100.98;1802279;78;23079;-41
2021/05/11 06:02:22;;;;;;;4.25;2.02;;;;;;;13.53;42.34;101105.70;1801900;77;23064;-41
2021/05/11 06:05:16;;;;;;;5.15;3.00;;;;;;;13.63;42.61;101104.64;1784352;78;28916;-43
2021/05/11 06:08:09;;;;;;;5.25;2.52;;;;;;;13.72;42.91;101112.13;1800439;78;22927;-41
2021/05/11 06:10:43;;;;;;;3.70;2.20;;;;;;;13.83;41.96;101106.09;1754753;79;23092;-42
2021/05/11 06:13:20;;;;;;;4.45;2.72;;;;;;;13.93;40.93;101105.04;1760059;79;23521;-42
2021/05/11 06:19:05;;;;;;;5.78;2.67;;;;;;;14.18;39.97;101107.03;1803391;77;23080;-46
2021/05/11 06:21:58;;;;;;;4.25;2.15;;;;;;;14.27;40.35;101112.67;1793509;78;23080;-43
2021/05/11 06:24:32;;;;;;;6.70;2.40;;;;;;;14.35;39.88;101100.11;1797127;78;23549;-42
2021/05/11 06:27:07;;;;;;;2.83;2.22;;;;;;;14.46;40.81;101104.31;1808161;78;23077;-43
2021/05/11 06:30:00;;;;;;;3.90;2.47;;;;;;;14.57;41.04;101096.94;1802168;77;23105;-42
2021/05/11 06:32:34;;;;;;;11.95;2.95;;;;;;;14.69;41.84;101104.64;1746180;78;22943;-43
2021/05/11 06:35:30;;;;;;;9.40;3.70;;;;;;;14.80;39.29;101090.05;1794791;78;23327;-44
2021/05/11 06:38:23;;;;;;;3.12;1.70;;;;;;;14.95;37.72;101083.28;1801473;77;23676;-47
2021/05/11 06:40:58;;;;;;;5.90;1.95;;;;;;;15.05;36.75;101086.57;1798965;78;22988;-43
2021/05/11 06:43:57;;;;;;;4.30;1.90;;;;;;;15.15;36.21;101078.27;1794556;78;23057;-44
2021/05/11 06:49:47;;;;;;;2.80;1.70;;;;;;;15.44;32.35;101070.50;1791414;77;23058;-44
2021/05/11 06:55:28;;;;;;;4.42;1.85;;;;;;;15.66;34.00;101065.34;1799629;78;23112;-46
2021/05/11 06:58:22;;;;;;;2.87;1.80;;;;;;;15.75;30.81;101068.77;1795260;79;23045;-43
2021/05/11 07:00:56;;;;;;;3.00;1.50;;;;;;;15.86;29.24;101058.58;1797593;78;23070;-44
2021/05/11 07:03:50;;;;;;;2.27;1.35;;;;;;;16.00;28.87;101064.30;1782546;78;23094;-45
2021/05/11 07:06:30;;;;;;;2.95;1.72;;;;;;;16.12;28.04;101058.52;1795256;77;22828;-47
2021/05/11 07:14:39;;;;;;;3.62;1.90;;;;;;;16.37;28.63;101057.59;1817294;77;23069;-44
2021/05/11 07:17:13;;;;;;;4.87;1.75;;;;;;;16.43;29.08;101059.84;1822538;77;22925;-41
2021/05/11 07:19:47;;;;;;;4.10;1.50;;;;;;;16.50;27.54;101061.08;1759505;79;22890;-42
2021/05/11 07:22:22;;;;;;;3.30;1.92;;;;;;;16.57;29.38;101056.97;1799348;78;22919;-40
2021/05/11 07:25:07;;;;;;;1.77;1.15;;;;;;;16.63;29.40;101044.88;1799947;77;23575;-40
2021/05/11 07:31:01;;;;;;;2.10;1.35;;;;;;;16.82;27.08;101036.31;1905294;73;27454;-41
2021/05/11 07:36:17;;;;;;;4.50;1.40;;;;;;;17.07;28.40;101024.52;1804480;78;23074;-42
2021/05/11 07:39:11;;;;;;;2.33;1.35;;;;;;;17.20;28.75;101011.80;1797740;78;23099;-42
2021/05/11 07:42:06;;;;;;;5.42;2.22;;;;;;;17.30;29.16;101007.41;1793528;78;22906;-41
2021/05/11 07:44:43;;;;;;;2.87;1.32;;;;;;;17.36;27.69;100995.77;1764816;79;22944;-41
2021/05/11 07:47:23;;;;;;;1.95;1.70;;;;;;;17.43;29.29;100999.70;1808334;78;23581;-44
2021/05/11 08:04:39;;;;;;;3.45;1.65;;;;;;;17.84;29.51;101008.58;1801956;78;22940;-45
2021/05/11 08:16:14;;;;;;;2.35;1.87;;;;;;;17.88;31.17;100999.23;1818268;77;23031;-43
2021/05/11 08:28:19;;;;;;;3.45;1.67;;;;;;;18.02;31.36;100987.34;1789643;78;23107;-41
2021/05/11 08:30:53;;;;;;;5.55;1.50;;;;;;;18.03;31.40;100982.30;1760182;79;23488;-42
2021/05/11 08:33:30;;;;;;;4.83;2.90;;;;;;;18.07;32.03;100988.31;1778392;77;28453;-41
2021/05/11 08:36:11;;;;;;;3.87;1.70;;;;;;;18.14;32.98;100984.10;1755927;79;23393;-41
2021/05/11 08:39:05;;;;;;;2.75;1.70;;;;;;;18.19;33.40;100979.18;1793326;78;23119;-41
2021/05/11 08:41:38;;;;;;;6.20;1.67;;;;;;;18.23;32.29;100975.25;1756701;79;23064;-42
2021/05/11 08:44:32;;;;;;;3.70;1.67;;;;;;;18.28;32.75;100978.42;1804015;78;23994;-42
2021/05/11 08:47:06;;;;;;;2.40;1.80;;;;;;;18.34;32.63;100973.00;1818754;76;23059;-43
2021/05/11 08:50:00;;;;;;;3.33;1.62;;;;;;;18.41;32.59;100972.86;1792797;78;22970;-42
2021/05/11 09:28:41;;;;;;;3.77;1.65;;;;;;;19.21;32.07;100916.08;1798699;78;23569;-42
2021/05/11 09:34:41;;;;;;;3.12;1.85;;;;;;;19.15;32.64;100907.14;1793001;78;23086;-46
2021/05/11 10:39:53;;;;;;;3.77;2.00;;;;;;;20.01;33.13;100857.03;1869942;74;28049;-42
2021/05/11 10:49:02;;;;;;;4.20;1.67;;;;;;;20.22;33.96;100846.55;1796425;78;23063;-45
2021/05/11 10:51:42;;;;;;;2.58;1.30;;;;;;;20.24;34.25;100840.50;1761007;78;23113;-41
2021/05/11 10:54:23;;;;;;;2.12;1.30;;;;;;;20.32;34.29;100837.41;1762231;79;23007;-43
2021/05/11 10:57:42;;;;;;;3.08;1.65;;;;;;;20.39;32.61;100838.20;1797602;78;23075;-43
2021/05/11 11:00:45;;;;;;;1.92;1.27;;;;;;;20.39;33.17;100835.50;1806067;78;23103;-42
2021/05/11 11:03:27;;;;;;;2.17;1.60;;;;;;;20.44;34.19;100843.54;1804703;78;22936;-43
2021/05/11 11:06:06;;;;;;;3.75;1.50;;;;;;;20.50;33.89;100838.03;1806768;77;23041;-44
2021/05/11 11:09:08;;;;;;;3.40;1.62;;;;;;;20.54;34.66;100831.34;1793100;78;23043;-45
2021/05/11 11:11:48;;;;;;;3.55;2.08;;;;;;;20.60;32.15;100824.51;1758115;79;23109;-44
2021/05/11 11:14:43;;;;;;;3.83;1.50;;;;;;;20.62;33.18;100822.52;1800369;78;23094;-42
2021/05/11 11:17:42;;;;;;;2.45;1.20;;;;;;;20.69;33.99;100810.94;1792813;77;23023;-41
2021/05/11 11:20:18;;;;;;;3.02;1.35;;;;;;;20.72;32.32;100805.73;1755669;79;23436;-42
2021/05/11 11:26:09;;;;;;;5.80;1.25;;;;;;;20.82;33.33;100797.06;1795606;77;23492;-41
2021/05/11 11:29:11;;;;;;;2.83;1.32;;;;;;;20.91;33.88;100788.52;1805928;77;23066;-43
2021/05/11 11:31:45;;;;;;;4.10;1.80;;;;;;;21.01;32.76;100793.91;1766293;79;23453;-49
2021/05/11 11:34:40;;;;;;;1.85;0.98;;;;;;;21.09;32.87;100792.64;1794327;77;23419;-43
2021/05/11 11:37:33;;;;;;;3.83;1.02;;;;;;;21.18;32.16;100787.17;1796103;78;23051;-40
2021/05/11 11:40:11;;;;;;;169.87;146.15;;;;;;;21.22;33.60;100776.91;1801696;78;23071;-41
2021/05/11 11:42:47;;;;;;;16.57;15.30;;;;;;;21.29;32.51;100775.30;1802548;77;23029;-43
2021/05/11 11:45:38;;;;;;;4.30;2.20;;;;;;;21.30;31.64;100778.85;1777472;78;21120;-42
2021/05/11 11:48:13;;;;;;;6.85;1.42;;;;;;;21.38;32.62;100778.45;1758829;79;23087;-43
2021/05/11 11:50:55;;;;;;;128.23;103.30;;;;;;;21.39;31.46;100776.11;1805656;77;23041;-42
2021/05/11 11:53:33;;;;;;;5.00;3.40;;;;;;;21.42;31.61;100772.25;1799319;78;22955;-46
2021/05/11 11:56:36;;;;;;;4.28;1.70;;;;;;;21.47;32.00;100767.69;1787222;77;27865;-43
2021/05/11 11:59:05;;;;;;;3.45;1.47;;;;;;;21.52;32.38;100764.02;1801118;78;23245;-43
2021/05/11 12:01:39;;;;;;;5.30;1.72;;;;;;;21.54;32.40;100772.34;1763094;79;22912;-42
2021/05/11 12:04:13;;;;;;;3.17;2.10;;;;;;;21.52;32.55;100759.47;1803388;78;23071;-45
2021/05/11 12:06:49;;;;;;;3.55;1.40;;;;;;;21.52;33.00;100759.47;1799453;77;22967;-42
2021/05/11 12:09:23;;;;;;;3.12;2.05;;;;;;;21.57;32.47;100762.56;1744358;79;28146;-45
2021/05/11 12:12:00;;;;;;;5.62;1.77;;;;;;;21.62;32.39;100755.33;1764137;79;23067;-46
2021/05/11 12:14:54;;;;;;;4.15;1.40;;;;;;;21.68;32.35;100756.05;1804273;77;22928;-44
2021/05/11 12:17:34;;;;;;;4.33;1.50;;;;;;;21.72;33.02;100760.64;1756383;79;23098;-48
2021/05/11 12:20:24;;;;;;;2.70;1.22;;;;;;;21.74;32.22;100759.48;1797903;77;22971;-43
2021/05/11 12:23:16;;;;;;;6.53;2.02;;;;;;;21.79;32.46;100754.44;1800288;78;23130;-44
2021/05/11 12:26:23;;;;;;;2.17;1.27;;;;;;;21.84;32.08;100760.77;1799712;78;23052;-43
2021/05/11 12:29:18;;;;;;;1.52;1.02;;;;;;;21.84;31.91;100752.63;1798067;78;23091;-41
2021/05/11 12:31:58;;;;;;;3.20;1.20;;;;;;;21.83;32.18;100736.84;1807194;78;22875;-49
2021/05/11 12:34:32;;;;;;;3.98;1.57;;;;;;;21.89;32.06;100741.30;1756170;78;23118;-47
2021/05/11 12:37:12;;;;;;;3.08;1.20;;;;;;;21.92;31.88;100734.20;1754791;79;23053;-43
2021/05/11 12:39:51;;;;;;;3.10;1.30;;;;;;;21.98;32.79;100734.43;1823467;76;23395;-46
2021/05/11 12:42:24;;;;;;;4.03;1.60;;;;;;;22.01;32.30;100724.61;1752224;79;28695;-45
2021/05/11 12:45:06;;;;;;;1.85;1.20;;;;;;;22.07;32.38;100720.39;1791806;78;28511;-49
2021/05/11 12:48:00;;;;;;;2.75;1.37;;;;;;;22.19;31.70;100717.80;1764381;79;22919;-45
2021/05/11 12:50:46;;;;;;;3.50;1.15;;;;;;;22.24;31.81;100716.82;1738936;80;21149;-45
2021/05/11 12:53:45;;;;;;;3.08;1.07;;;;;;;22.33;32.19;100705.52;1795805;78;23430;-45
2021/05/11 12:59:48;;;;;;;2.35;1.42;;;;;;;22.29;32.08;100701.41;1801772;77;22952;-46
2021/05/11 13:20:36;;;;;;;3.42;1.75;;;;;;;22.68;31.10;100691.44;1802873;78;23262;-47
2021/05/11 13:31:46;;;;;;;3.33;1.22;;;;;;;22.93;30.82;100684.23;1758569;79;22953;-46
2021/05/11 13:34:37;;;;;;;3.52;1.60;;;;;;;22.99;31.07;100695.82;1773590;78;28183;-49
2021/05/11 13:37:12;;;;;;;4.55;1.22;;;;;;;23.06;31.32;100690.06;1810926;78;23104;-43
2021/05/11 13:39:46;;;;;;;2.72;1.37;;;;;;;23.11;31.41;100687.70;1809045;76;23030;-42
2021/05/11 13:42:21;;;;;;;2.70;1.02;;;;;;;23.17;31.44;100684.81;1765933;79;23612;-42
2021/05/11 13:45:14;;;;;;;2.62;0.80;;;;;;;23.23;31.74;100679.21;1794216;77;23508;-44
2021/05/11 13:51:23;;;;;;;1.50;0.90;;;;;;;23.33;30.42;100682.62;1795081;78;23116;-43
2021/05/11 13:54:06;;;;;;;5.47;1.30;;;;;;;23.33;31.17;100682.14;1758985;79;23628;-45
2021/05/11 13:56:56;;;;;;;1.55;1.20;;;;;;;23.30;30.87;100681.09;1732919;80;21664;-41
2021/05/11 14:05:10;;;;;;;4.10;1.40;;;;;;;24.19;30.16;100673.96;1745999;79;29109;-43
2021/05/11 14:08:04;;;;;;;1.98;0.95;;;;;;;24.93;29.73;100664.16;1792515;78;23060;-42
2021/05/11 14:10:40;;;;;;;4.42;1.02;;;;;;;25.32;28.56;100667.86;1801401;78;23111;-43
2021/05/11 14:13:14;;;;;;;2.50;1.20;;;;;;;25.59;27.97;100659.12;1746416;78;28179;-44
2021/05/11 14:16:07;;;;;;;1.87;0.85;;;;;;;25.64;27.46;100651.75;1802413;78;23069;-42
2021/05/11 14:19:01;;;;;;;3.67;1.00;;;;;;;25.91;27.88;100657.17;1800600;78;23524;-41
2021/05/11 14:21:54;;;;;;;4.15;0.90;;;;;;;26.07;27.36;100654.78;1796034;78;23840;-41
2021/05/11 14:24:28;;;;;;;2.83;1.00;;;;;;;26.19;26.81;100649.19;1757951;79;23401;-41
2021/05/11 14:27:02;;;;;;;3.22;1.02;;;;;;;26.13;27.48;100648.56;1804066;78;23125;-39
2021/05/11 14:29:37;;;;;;;2.30;1.10;;;;;;;25.84;27.25;100646.63;1759122;79;23402;-42
2021/05/11 14:32:31;;;;;;;3.80;1.27;;;;;;;25.46;27.99;100643.89;1799096;78;22954;-40
2021/05/11 14:35:05;;;;;;;1.90;0.93;;;;;;;25.17;28.84;100651.42;1801856;78;23055;-42
2021/05/11 14:37:59;;;;;;;1.72;0.93;;;;;;;24.92;29.41;100638.42;1798490;78;23066;-40
2021/05/11 14:40:34;;;;;;;6.30;1.65;;;;;;;24.71;28.71;100643.98;1799268;78;22959;-41
2021/05/11 14:43:08;;;;;;;3.22;1.10;;;;;;;24.51;29.36;100650.37;1803250;78;23047;-42
2021/05/11 14:46:18;;;;;;;5.60;1.10;;;;;;;24.44;29.55;100638.97;1796543;78;23557;-42
2021/05/11 14:50:04;;;;;;;2.25;1.15;;;;;;;24.36;29.61;100642.05;1638017;86;21349;-42
2021/05/11 14:52:38;;;;;;;1.10;0.75;;;;;;;24.38;29.47;100635.08;1798957;78;22961;-43
2021/05/11 14:55:14;;;;;;;5.78;1.15;;;;;;;24.35;29.62;100634.08;1798482;77;22840;-47
2021/05/11 14:58:08;;;;;;;2.87;1.17;;;;;;;24.30;29.69;100626.94;1797710;78;23067;-42
2021/05/11 15:00:52;;;;;;;3.87;1.57;;;;;;;24.25;30.11;100626.10;1797393;77;22982;-42
2021/05/11 15:03:26;;;;;;;2.67;1.10;;;;;;;24.23;30.38;100615.89;1762075;79;23074;-43
2021/05/11 15:06:00;;;;;;;3.80;1.52;;;;;;;24.21;30.54;100620.66;1807375;77;22958;-39
2021/05/11 15:08:54;;;;;;;2.67;1.30;;;;;;;24.19;30.36;100618.61;1794198;78;23023;-40
2021/05/11 15:11:28;;;;;;;3.17;1.77;;;;;;;24.15;30.44;100618.64;1799648;78;23419;-39
2021/05/11 15:14:03;;;;;;;3.55;1.40;;;;;;;24.13;31.16;100610.64;1800229;77;22925;-44
2021/05/11 15:16:39;;;;;;;5.97;1.67;;;;;;;24.15;31.37;100611.84;1758174;79;23477;-40
2021/05/11 15:19:13;;;;;;;4.10;1.27;;;;;;;24.16;31.74;100609.44;1808622;78;23081;-41
2021/05/11 15:22:06;;;;;;;3.83;1.20;;;;;;;24.19;31.80;100606.36;1793325;78;23065;-45
2021/05/11 15:24:41;;;;;;;3.85;1.62;;;;;;;24.19;32.29;100610.44;1821942;77;23247;-42
2021/05/11 15:27:36;;;;;;;4.03;1.62;;;;;;;24.17;31.78;100600.26;1806237;78;22958;-41
2021/05/11 15:30:11;;;;;;;5.87;2.00;;;;;;;24.17;32.29;100602.47;1810034;77;22963;-42
2021/05/11 15:32:56;;;;;;;8.58;2.00;;;;;;;24.16;32.49;100601.27;1801140;78;22967;-43
2021/05/11 15:35:49;;;;;;;4.30;1.37;;;;;;;24.13;32.38;100601.10;1797758;78;23607;-45
2021/05/11 15:38:42;;;;;;;7.50;2.60;;;;;;;24.09;31.81;100592.97;1792096;78;22907;-40
2021/05/11 15:41:36;;;;;;;5.50;1.75;;;;;;;24.05;32.09;100598.94;1797245;78;23075;-44
2021/05/11 15:44:10;;;;;;;6.90;1.40;;;;;;;24.00;32.59;100599.97;1758618;79;23064;-40
2021/05/11 15:46:43;;;;;;;5.58;1.57;;;;;;;23.99;32.50;100595.04;1758209;79;23626;-42
2021/05/11 15:49:39;;;;;;;2.60;1.35;;;;;;;23.94;32.45;100602.36;1795717;78;23498;-43
2021/05/11 15:52:13;;;;;;;4.90;1.77;;;;;;;23.90;32.76;100598.28;1791066;78;37627;-42
2021/05/11 15:55:08;;;;;;;4.10;1.40;;;;;;;23.94;32.62;100592.83;1793767;77;23123;-46
2021/05/11 15:58:02;;;;;;;5.60;1.90;;;;;;;23.92;32.84;100592.16;1800275;78;23930;-40
2021/05/11 16:00:36;;;;;;;6.47;1.50;;;;;;;23.89;32.74;100593.88;1768700;79;23437;-40
2021/05/11 16:03:31;;;;;;;4.80;1.70;;;;;;;23.83;33.07;100590.47;1795292;77;23051;-42
2021/05/11 16:06:05;;;;;;;8.20;2.25;;;;;;;23.80;33.12;100587.25;1798678;78;23051;-41
2021/05/11 16:08:58;;;;;;;5.22;1.98;;;;;;;23.77;33.24;100578.92;1795314;77;22933;-42
2021/05/11 16:11:52;;;;;;;6.55;2.60;;;;;;;23.75;33.41;100581.80;1791842;78;23059;-41
2021/05/11 16:14:45;;;;;;;2.30;1.30;;;;;;;23.73;33.49;100579.76;1794552;78;23058;-40
2021/05/11 16:17:19;;;;;;;5.80;1.60;;;;;;;23.70;33.48;100579.23;1800574;78;23065;-42
2021/05/11 16:20:13;;;;;;;9.50;2.65;;;;;;;23.63;33.73;100572.78;1801039;78;24096;-40
2021/05/11 16:22:47;;;;;;;4.60;2.90;;;;;;;23.58;33.91;100572.45;1822083;77;23503;-41
2021/05/11 16:25:41;;;;;;;3.80;2.27;;;;;;;23.54;34.12;100573.31;1792245;78;23087;-41
2021/05/11 16:28:15;;;;;;;4.67;2.00;;;;;;;23.50;34.38;100575.52;1804189;78;23113;-45
2021/05/11 16:30:49;;;;;;;7.83;2.35;;;;;;;23.48;34.43;100581.62;1804550;78;23105;-43
2021/05/11 16:33:23;;;;;;;7.22;1.30;;;;;;;23.44;34.82;100578.93;1798544;78;22956;-42
2021/05/11 16:36:17;;;;;;;6.25;1.52;;;;;;;23.43;34.67;100580.45;1793715;78;23031;-42
2021/05/11 16:39:10;;;;;;;3.17;1.30;;;;;;;23.38;34.34;100580.95;1798518;78;23039;-40
2021/05/11 16:41:46;;;;;;;3.27;1.17;;;;;;;23.35;34.78;100574.50;1799186;77;23296;-41
2021/05/11 16:44:20;;;;;;;11.12;3.08;;;;;;;23.36;35.11;100576.70;1817118;77;23117;-39
2021/05/11 16:46:54;;;;;;;3.95;1.62;;;;;;;23.33;35.28;100573.81;1798578;77;22916;-39
2021/05/11 16:49:28;;;;;;;4.70;1.47;;;;;;;23.28;35.36;100576.20;1804465;77;23408;-39
2021/05/11 16:52:02;;;;;;;6.20;2.12;;;;;;;23.22;35.48;100570.94;1804630;78;23091;-39